Time;durP1;ratioP1;P1;durP2;ratioP2;P2;SDS_P1;SDS_P2;PMS_P1;PMS_P2;Temp;Humidity;BMP_temperature;BMP_pressure;BME280_temperature;BME280_humidity;BME280_pressure;Samples;Min_cycle;Max_cycle;Signal;HPM_P1;HPM_P2
2022/05/08 00:01:56;;;;;;;26.50;4.32;;;8.20;99.90;;;;;;5092203;28;20075;-80
2022/05/08 00:04:21;;;;;;;29.85;4.95;;;8.20;99.90;;;;;;5075182;27;20148;-80
2022/05/08 00:06:47;;;;;;;30.85;4.68;;;8.10;99.90;;;;;;5072933;28;20043;-79
2022/05/08 00:09:15;;;;;;;26.58;4.63;;;8.80;99.90;;;;;;5088935;28;21942;-79
2022/05/08 00:11:41;;;;;;;25.08;4.38;;;8.20;99.90;;;;;;5076134;28;20065;-79
2022/05/08 00:14:07;;;;;;;31.25;4.68;;;8.10;99.90;;;;;;5092450;28;20031;-79
2022/05/08 00:16:33;;;;;;;28.02;4.40;;;8.20;99.90;;;;;;5072981;28;20178;-80
2022/05/08 00:18:58;;;;;;;25.20;3.67;;;8.10;99.90;;;;;;5074328;28;20451;-79
2022/05/08 00:21:24;;;;;;;24.73;4.13;;;8.20;99.90;;;;;;5079245;28;20098;-78
2022/05/08 00:23:50;;;;;;;30.17;4.22;;;8.20;99.90;;;;;;5076361;28;20380;-79
2022/05/08 00:26:16;;;;;;;29.55;4.45;;;8.30;99.90;;;;;;5090754;28;20051;-80
2022/05/08 00:28:41;;;;;;;23.38;3.90;;;8.30;99.90;;;;;;5070282;28;20043;-81
2022/05/08 00:31:11;;;;;;;23.35;3.80;;;8.40;99.90;;;;;;5089767;28;20427;-78
2022/05/08 00:33:38;;;;;;;24.83;4.20;;;8.40;99.90;;;;;;5072419;28;20439;-79
2022/05/08 00:36:05;;;;;;;30.63;5.00;;;8.40;99.90;;;;;;5096084;28;20042;-81
2022/05/08 00:38:30;;;;;;;24.98;3.83;;;8.40;99.90;;;;;;5096759;28;20187;-80
2022/05/08 00:40:56;;;;;;;23.38;3.92;;;8.40;99.90;;;;;;5081958;28;20032;-78
2022/05/08 00:43:38;;;;;;;23.23;3.85;;;8.40;99.90;;;;;;5107137;28;20095;-78
2022/05/08 00:46:05;;;;;;;17.25;3.20;;;8.30;99.90;;;;;;5114650;28;20036;-76
2022/05/08 00:48:31;;;;;;;20.65;3.80;;;8.50;99.90;;;;;;5095790;28;20067;-79
2022/05/08 00:50:58;;;;;;;31.08;4.45;;;8.60;99.90;;;;;;5073476;28;20071;-79
2022/05/08 00:53:26;;;;;;;21.23;3.55;;;8.30;99.90;;;;;;5072412;28;20109;-81
2022/05/08 00:55:54;;;;;;;16.77;3.22;;;8.40;99.90;;;;;;5087970;28;20109;-79
2022/05/08 00:58:20;;;;;;;26.25;4.47;;;8.30;99.90;;;;;;5071236;28;20031;-79
2022/05/08 01:00:46;;;;;;;23.55;3.58;;;8.30;99.90;;;;;;5092917;28;20039;-79
2022/05/08 01:03:15;;;;;;;21.50;3.80;;;8.30;99.90;;;;;;5096231;28;20394;-79
2022/05/08 01:05:44;;;;;;;23.02;3.97;;;8.20;99.90;;;;;;5094335;28;20067;-80
2022/05/08 01:08:11;;;;;;;22.77;3.55;;;8.20;99.90;;;;;;5072187;28;20043;-81
2022/05/08 01:10:37;;;;;;;22.10;3.40;;;8.90;99.90;;;;;;5078767;28;20042;-79
2022/05/08 01:13:07;;;;;;;24.42;3.65;;;8.20;99.90;;;;;;5077622;28;20059;-81
2022/05/08 01:15:49;;;;;;;25.15;3.85;;;8.20;99.90;;;;;;5096736;28;20140;-79
2022/05/08 01:18:16;;;;;;;23.05;4.07;;;8.10;99.90;;;;;;5090510;28;20036;-79
2022/05/08 01:20:44;;;;;;;23.63;3.50;;;8.20;99.90;;;;;;5078026;28;20055;-80
2022/05/08 01:23:11;;;;;;;24.75;4.13;;;8.20;99.90;;;;;;5079367;28;20107;-81
2022/05/08 01:25:46;;;;;;;15.35;3.42;;;8.10;99.90;;;;;;5076485;28;20050;-79
2022/05/08 01:28:12;;;;;;;;;;;8.00;99.90;;;;;;5071780;28;20074;-80
2022/05/08 01:30:46;;;;;;;23.60;3.47;;;8.00;99.90;;;;;;5075862;28;19916;-81
2022/05/08 01:33:12;;;;;;;19.58;3.50;;;8.00;99.90;;;;;;5094609;28;20044;-78
2022/05/08 01:35:39;;;;;;;21.20;3.25;;;8.00;99.90;;;;;;5090484;28;20036;-80
2022/05/08 01:38:06;;;;;;;18.67;3.47;;;7.90;99.90;;;;;;5076241;28;20137;-79
2022/05/08 01:40:31;;;;;;;21.35;3.22;;;7.90;99.90;;;;;;5090439;28;20170;-81
2022/05/08 01:42:58;;;;;;;21.02;3.67;;;7.90;99.90;;;;;;5096985;28;20118;-84
2022/05/08 01:45:24;;;;;;;20.27;3.13;;;8.00;99.90;;;;;;5094860;28;20036;-79
2022/05/08 01:50:35;;;;;;;23.85;4.15;;;7.90;99.90;;;;;;5093941;28;20094;-77
2022/05/08 01:53:01;;;;;;;21.67;4.20;;;7.90;99.90;;;;;;5074187;28;20036;-80
2022/05/08 01:55:27;;;;;;;18.38;3.95;;;7.70;99.90;;;;;;5094318;28;20051;-78
2022/05/08 01:57:53;;;;;;;18.42;3.70;;;7.70;99.90;;;;;;5092289;28;20059;-80
2022/05/08 02:00:20;;;;;;;17.63;3.97;;;7.60;99.90;;;;;;5077786;28;20520;-80
2022/05/08 02:02:48;;;;;;;22.30;3.88;;;7.50;99.90;;;;;;5096670;28;20511;-80
2022/05/08 02:05:17;;;;;;;16.83;3.78;;;7.40;99.90;;;;;;5082687;28;20052;-78
2022/05/08 02:07:44;;;;;;;22.45;3.95;;;7.40;99.90;;;;;;5100925;28;20044;-81
2022/05/08 02:10:10;;;;;;;21.58;3.80;;;7.40;99.90;;;;;;5097385;28;20044;-78
2022/05/08 02:12:36;;;;;;;23.13;3.65;;;7.70;99.90;;;;;;5111851;28;20698;-77
2022/05/08 02:15:02;;;;;;;24.10;3.80;;;7.40;99.90;;;;;;5102352;28;20032;-75
2022/05/08 02:17:28;;;;;;;26.00;4.03;;;7.20;99.90;;;;;;5095470;28;20118;-79
2022/05/08 02:19:53;;;;;;;28.85;3.88;;;7.20;99.90;;;;;;5072917;28;20076;-78
2022/05/08 02:22:19;;;;;;;18.23;3.90;;;7.30;99.90;;;;;;5076934;28;20052;-79
2022/05/08 02:24:45;;;;;;;32.55;4.65;;;7.20;99.90;;;;;;5081862;28;20044;-78
2022/05/08 02:27:10;;;;;;;22.02;3.30;;;7.20;99.90;;;;;;5074137;28;20036;-78
2022/05/08 02:29:36;;;;;;;18.73;3.47;;;7.20;99.90;;;;;;5095111;28;20146;-78
2022/05/08 02:32:01;;;;;;;22.17;3.58;;;7.20;99.90;;;;;;5094714;28;20387;-79
2022/05/08 02:34:27;;;;;;;16.65;3.35;;;7.10;99.90;;;;;;5095031;28;20032;-80
2022/05/08 02:36:53;;;;;;;12.43;3.00;;;7.10;99.90;;;;;;5081918;28;20458;-80
2022/05/08 02:39:18;;;;;;;19.75;3.58;;;7.00;99.90;;;;;;5096340;28;20044;-80
2022/05/08 02:41:45;;;;;;;26.48;3.63;;;7.00;99.90;;;;;;5073414;28;20044;-80
2022/05/08 02:44:11;;;;;;;17.40;3.60;;;7.00;99.90;;;;;;5096769;28;20046;-81
2022/05/08 02:46:37;;;;;;;26.52;3.80;;;6.90;99.90;;;;;;5107796;28;20047;-80
2022/05/08 02:49:03;;;;;;;19.60;3.63;;;6.90;99.90;;;;;;5085283;28;20067;-78
2022/05/08 02:51:28;;;;;;;21.75;3.45;;;6.90;99.90;;;;;;5089681;28;20550;-78
2022/05/08 02:53:54;;;;;;;23.05;4.05;;;6.90;99.90;;;;;;5080493;28;20039;-80
2022/05/08 02:59:04;;;;;;;20.70;3.72;;;7.00;99.90;;;;;;5109557;28;20044;-78
2022/05/08 03:01:29;;;;;;;21.45;3.55;;;6.90;99.90;;;;;;5084750;28;20065;-78
2022/05/08 03:03:55;;;;;;;17.63;3.60;;;6.90;99.90;;;;;;5103241;28;20038;-78
2022/05/08 03:06:20;;;;;;;25.50;4.00;;;6.90;99.90;;;;;;5096841;28;20047;-81
2022/05/08 03:08:50;;;;;;;18.52;3.10;;;7.30;99.90;;;;;;5102187;28;20050;-79
2022/05/08 03:11:29;;;;;;;19.20;3.30;;;6.90;99.90;;;;;;5099931;28;20415;-79
2022/05/08 03:13:56;;;;;;;18.17;3.63;;;6.90;99.90;;;;;;5110401;28;20126;-80
2022/05/08 03:16:22;;;;;;;16.90;3.67;;;7.00;99.90;;;;;;5104986;28;20031;-81
2022/05/08 03:18:49;;;;;;;21.48;3.15;;;7.00;99.90;;;;;;5082453;28;20465;-81
2022/05/08 03:21:15;;;;;;;23.25;3.92;;;7.00;99.90;;;;;;5105913;28;20028;-80
2022/05/08 03:23:45;;;;;;;11.25;3.00;;;7.30;99.90;;;;;;5062495;28;20115;-81
2022/05/08 03:26:13;;;;;;;14.48;3.03;;;7.10;99.90;;;;;;5101703;28;20039;-80
2022/05/08 03:28:39;;;;;;;16.45;3.13;;;7.10;99.90;;;;;;5098974;28;20043;-79
2022/05/08 03:31:05;;;;;;;13.50;2.78;;;7.10;99.90;;;;;;5090486;28;20047;-78
2022/05/08 03:33:32;;;;;;;17.73;2.63;;;7.20;99.90;;;;;;5086740;28;20044;-80
2022/05/08 03:35:58;;;;;;;20.45;3.15;;;7.20;99.90;;;;;;5094068;28;20040;-81
2022/05/08 03:38:24;;;;;;;11.63;2.40;;;7.20;99.90;;;;;;5097774;28;20105;-78
2022/05/08 03:40:54;;;;;;;12.20;2.78;;;7.20;99.90;;;;;;5101458;28;20521;-80
2022/05/08 03:43:20;;;;;;;18.33;2.92;;;7.20;99.90;;;;;;5107432;28;20107;-79
2022/05/08 03:45:48;;;;;;;15.30;2.88;;;7.10;99.90;;;;;;5078685;28;20143;-79
2022/05/08 03:48:18;;;;;;;14.23;2.72;;;7.20;99.90;;;;;;5099853;28;20043;-79
2022/05/08 03:50:44;;;;;;;15.02;3.20;;;7.10;99.90;;;;;;5079238;28;20113;-80
2022/05/08 03:53:10;;;;;;;16.77;3.55;;;7.10;99.90;;;;;;5097912;28;20067;-78
2022/05/08 03:55:36;;;;;;;15.25;2.80;;;7.10;99.90;;;;;;5098473;28;20050;-80
2022/05/08 03:58:02;;;;;;;11.35;2.50;;;7.10;99.90;;;;;;5077642;28;20052;-78
2022/05/08 04:00:28;;;;;;;12.45;2.67;;;7.10;99.90;;;;;;5098076;28;20097;-79
2022/05/08 04:02:54;;;;;;;21.55;3.40;;;7.10;99.90;;;;;;5096223;28;20516;-79
2022/05/08 04:05:20;;;;;;;19.77;3.00;;;7.10;99.90;;;;;;5096182;28;20055;-79
2022/05/08 04:07:46;;;;;;;17.77;3.00;;;7.40;99.90;;;;;;5074850;28;20447;-78
2022/05/08 04:10:21;;;;;;;14.10;3.00;;;7.10;99.90;;;;;;5094917;28;20032;-78
2022/05/08 04:12:47;;;;;;;17.77;3.40;;;7.00;99.90;;;;;;5076628;28;20050;-80
2022/05/08 04:17:57;;;;;;;20.13;3.33;;;7.00;99.90;;;;;;5097995;28;20047;-79
2022/05/08 04:20:24;;;;;;;12.02;2.95;;;7.10;99.90;;;;;;5076229;28;20048;-79
2022/05/08 04:25:34;;;;;;;14.35;3.05;;;7.10;99.90;;;;;;5095175;28;20044;-80
2022/05/08 04:27:59;;;;;;;10.77;3.03;;;7.10;99.90;;;;;;5096958;28;20040;-80
2022/05/08 04:30:25;;;;;;;15.18;2.78;;;7.00;99.90;;;;;;5078358;28;20043;-79
2022/05/08 04:32:51;;;;;;;12.48;3.03;;;7.10;99.90;;;;;;5094257;28;20032;-79
2022/05/08 04:35:16;;;;;;;16.92;3.60;;;7.10;99.90;;;;;;5095767;28;20126;-78
2022/05/08 04:37:45;;;;;;;18.30;3.28;;;7.10;99.90;;;;;;5078921;28;20280;-81
2022/05/08 04:40:12;;;;;;;14.55;3.03;;;7.20;99.90;;;;;;5096143;28;20119;-79
2022/05/08 04:42:40;;;;;;;10.73;2.75;;;7.20;99.90;;;;;;5075550;28;22417;-79
2022/05/08 04:45:07;;;;;;;13.25;2.60;;;8.10;99.90;;;;;;5080933;28;20051;-79
2022/05/08 04:47:33;;;;;;;9.95;2.65;;;7.30;99.90;;;;;;5075392;28;20288;-79
2022/05/08 04:49:58;;;;;;;14.32;2.88;;;7.40;99.90;;;;;;5080516;28;20684;-79
2022/05/08 04:52:24;;;;;;;12.00;2.88;;;7.40;99.90;;;;;;5077385;28;20188;-80
2022/05/08 04:54:49;;;;;;;20.00;3.00;;;7.50;99.90;;;;;;5099731;28;20149;-80
2022/05/08 04:57:15;;;;;;;13.20;2.45;;;7.70;99.90;;;;;;5092551;28;20047;-81
2022/05/08 04:59:43;;;;;;;12.85;2.50;;;7.50;99.90;;;;;;5090267;28;20352;-79
2022/05/08 05:02:08;;;;;;;12.15;2.50;;;7.50;99.90;;;;;;5083331;28;20050;-77
2022/05/08 05:04:35;;;;;;;11.27;2.50;;;7.90;99.90;;;;;;5108588;28;20043;-76
2022/05/08 05:07:01;;;;;;;13.88;2.65;;;7.80;99.90;;;;;;5093468;28;20067;-78
2022/05/08 05:09:27;;;;;;;15.55;3.10;;;7.50;99.90;;;;;;5095356;28;20089;-78
2022/05/08 05:11:52;;;;;;;13.65;3.13;;;7.60;99.90;;;;;;5078345;28;20036;-78
2022/05/08 05:14:18;;;;;;;10.13;2.42;;;8.10;99.90;;;;;;5075057;28;20759;-80
2022/05/08 05:16:44;;;;;;;10.85;2.75;;;7.60;99.90;;;;;;5093704;28;20036;-80
2022/05/08 05:19:10;;;;;;;14.60;2.75;;;7.60;99.90;;;;;;5073342;28;20054;-80
2022/05/08 05:21:36;;;;;;;12.60;2.72;;;7.70;99.90;;;;;;5095996;28;20491;-79
2022/05/08 05:24:01;;;;;;;11.45;2.88;;;7.70;99.90;;;;;;5075822;28;20044;-80
2022/05/08 05:26:27;;;;;;;13.13;2.97;;;8.70;99.90;;;;;;5074057;28;20051;-79
2022/05/08 05:28:53;;;;;;;14.00;3.00;;;7.90;99.90;;;;;;5078871;28;20054;-79
2022/05/08 05:31:18;;;;;;;16.00;2.70;;;8.00;99.90;;;;;;5081968;28;20134;-80
2022/05/08 05:33:46;;;;;;;16.67;2.90;;;8.00;99.90;;;;;;5094090;28;20039;-81
2022/05/08 05:36:12;;;;;;;15.00;3.33;;;9.10;99.90;;;;;;5071439;28;20447;-79
2022/05/08 05:38:38;;;;;;;12.05;2.40;;;9.00;99.90;;;;;;5091900;28;20826;-80
2022/05/08 05:41:04;;;;;;;13.23;2.50;;;8.60;99.90;;;;;;5072586;28;20058;-80
2022/05/08 05:43:30;;;;;;;14.05;2.53;;;9.00;99.90;;;;;;5091781;28;20352;-80
2022/05/08 05:48:39;;;;;;;15.40;2.70;;;9.40;99.90;;;;;;5093398;28;20040;-79
2022/05/08 05:51:06;;;;;;;14.80;2.63;;;9.30;99.90;;;;;;5076322;28;20118;-79
2022/05/08 05:53:33;;;;;;;17.13;2.58;;;9.60;99.90;;;;;;5091019;28;20063;-81
2022/05/08 05:55:59;;;;;;;22.92;2.88;;;9.10;99.90;;;;;;5074930;28;20031;-80
2022/05/08 05:58:24;;;;;;;8.52;2.00;;;9.20;99.90;;;;;;5076107;28;21503;-80
2022/05/08 06:00:50;;;;;;;12.18;2.65;;;9.60;99.90;;;;;;5071182;28;20056;-78
2022/05/08 06:03:16;;;;;;;15.20;2.67;;;9.70;99.90;;;;;;5093954;28;20379;-81
2022/05/08 06:05:41;;;;;;;14.15;2.53;;;10.20;99.90;;;;;;5078776;28;20085;-79
2022/05/08 06:08:08;;;;;;;14.73;2.80;;;9.70;99.90;;;;;;5070850;28;20055;-83
2022/05/08 06:10:33;;;;;;;16.13;2.35;;;10.00;99.90;;;;;;5073218;28;20089;-82
2022/05/08 06:12:59;;;;;;;9.23;2.53;;;9.70;99.90;;;;;;5074731;28;20131;-80
2022/05/08 06:15:26;;;;;;;10.13;2.17;;;10.30;99.90;;;;;;5075047;28;20040;-82
2022/05/08 06:17:51;;;;;;;7.80;1.63;;;9.80;99.90;;;;;;5076610;28;20483;-81
2022/05/08 06:20:17;;;;;;;10.82;2.22;;;10.40;99.90;;;;;;5095301;28;20058;-82
2022/05/08 06:22:43;;;;;;;9.57;2.20;;;9.90;99.90;;;;;;5092272;28;20436;-81
2022/05/08 06:25:09;;;;;;;12.68;2.40;;;10.20;99.90;;;;;;5091205;28;20787;-81
2022/05/08 06:27:34;;;;;;;13.43;2.35;;;9.90;99.90;;;;;;5092938;28;20447;-84
2022/05/08 06:30:00;;;;;;;14.15;2.22;;;10.10;99.90;;;;;;5108713;28;20073;-82
2022/05/08 06:33:04;;;;;;;13.55;2.53;;;10.00;99.90;;;;;;5111960;28;20479;-82
2022/05/08 06:35:29;;;;;;;11.82;2.15;;;9.80;99.90;;;;;;5125785;28;20087;-82
2022/05/08 06:37:55;;;;;;;9.55;1.83;;;10.00;99.90;;;;;;5079839;28;20071;-80
2022/05/08 06:40:21;;;;;;;15.10;2.03;;;10.40;99.90;;;;;;5101447;28;20040;-81
2022/05/08 06:42:47;;;;;;;14.32;2.00;;;10.40;99.90;;;;;;5080789;28;20048;-80
2022/05/08 06:45:12;;;;;;;11.82;2.20;;;10.60;99.90;;;;;;5101929;28;20035;-82
2022/05/08 06:47:38;;;;;;;12.75;2.10;;;10.10;99.90;;;;;;5100429;28;20379;-81
2022/05/08 06:50:04;;;;;;;15.63;1.92;;;9.90;99.90;;;;;;5099719;28;20108;-83
2022/05/08 06:52:30;;;;;;;11.73;2.20;;;9.90;99.90;;;;;;5096350;28;20039;-84
2022/05/08 06:54:55;;;;;;;15.13;2.33;;;10.00;99.90;;;;;;5099225;28;20051;-83
2022/05/08 06:57:21;;;;;;;13.48;1.90;;;10.30;99.90;;;;;;5075420;28;20074;-81
2022/05/08 07:02:31;;;;;;;8.40;1.75;;;10.70;99.90;;;;;;5100977;28;20444;-81
2022/05/08 07:04:57;;;;;;;13.60;2.40;;;10.70;99.90;;;;;;5080345;28;20048;-82
2022/05/08 07:07:23;;;;;;;10.00;1.95;;;10.90;99.90;;;;;;5078457;28;20208;-85
2022/05/08 07:09:50;;;;;;;10.88;2.20;;;10.80;99.90;;;;;;5079681;28;20043;-82
2022/05/08 07:12:15;;;;;;;15.95;2.10;;;10.60;99.90;;;;;;5081347;28;20555;-85
2022/05/08 07:14:42;;;;;;;14.23;2.50;;;10.70;99.90;;;;;;5099144;28;20119;-80
2022/05/08 07:17:11;;;;;;;15.05;1.90;;;11.10;99.90;;;;;;5076555;28;20032;-82
2022/05/08 07:19:36;;;;;;;15.05;2.42;;;10.70;99.90;;;;;;5097828;28;20077;-84
2022/05/08 07:22:02;;;;;;;9.45;1.63;;;10.50;99.90;;;;;;5093033;28;20031;-84
2022/05/08 07:24:28;;;;;;;15.60;2.75;;;10.80;99.90;;;;;;5095288;28;20123;-83
2022/05/08 07:26:53;;;;;;;12.85;2.20;;;11.00;99.90;;;;;;5094707;28;20040;-84
2022/05/08 07:29:19;;;;;;;15.77;2.40;;;10.40;99.90;;;;;;5097931;28;20483;-80
2022/05/08 07:31:45;;;;;;;12.77;2.10;;;10.50;99.90;;;;;;5083744;28;20353;-82
2022/05/08 07:36:55;;;;;;;8.68;1.98;;;11.00;99.90;;;;;;5095345;28;20116;-84
2022/05/08 07:39:20;;;;;;;12.35;1.98;;;10.80;99.90;;;;;;5085587;28;20090;-83
2022/05/08 07:41:46;;;;;;;13.48;2.65;;;10.60;99.90;;;;;;5081585;28;20158;-79
2022/05/08 07:44:11;;;;;;;11.02;2.30;;;11.00;99.90;;;;;;5072332;28;20044;-81
2022/05/08 07:46:38;;;;;;;11.70;2.17;;;11.00;99.90;;;;;;5096501;28;20046;-80
2022/05/08 07:49:03;;;;;;;15.32;2.05;;;10.90;99.90;;;;;;5080416;28;20065;-82
2022/05/08 07:51:29;;;;;;;9.60;1.75;;;11.50;99.90;;;;;;5108793;28;20382;-81
2022/05/08 07:53:55;;;;;;;12.15;2.17;;;10.90;99.90;;;;;;5105879;28;20067;-83
2022/05/08 07:56:20;;;;;;;16.08;2.40;;;10.90;99.90;;;;;;5086316;28;20052;-79
2022/05/08 07:58:46;;;;;;;13.13;2.25;;;10.90;99.90;;;;;;5087807;28;20051;-75
2022/05/08 08:01:12;;;;;;;15.02;2.35;;;10.90;99.90;;;;;;5116368;28;20070;-74
2022/05/08 08:04:01;;;;;;;10.35;2.10;;;11.00;99.90;;;;;;5108449;28;20032;-81
2022/05/08 08:06:28;;;;;;;15.00;2.13;;;10.90;99.90;;;;;;5092116;28;20123;-81
2022/05/08 08:08:54;;;;;;;14.18;2.25;;;11.30;99.90;;;;;;5095261;28;20047;-77
2022/05/08 08:11:20;;;;;;;18.30;2.40;;;11.60;99.90;;;;;;5100207;28;20114;-78
2022/05/08 08:13:46;;;;;;;12.57;2.42;;;11.20;99.90;;;;;;5076483;28;20036;-78
2022/05/08 08:16:12;;;;;;;10.07;2.00;;;11.10;99.90;;;;;;5077598;28;20092;-78
2022/05/08 08:18:42;;;;;;;13.65;2.20;;;11.00;99.90;;;;;;5078020;28;20047;-78
2022/05/08 08:21:13;;;;;;;12.02;2.05;;;10.80;99.90;;;;;;5076360;28;20040;-76
2022/05/08 08:23:40;;;;;;;10.93;2.17;;;10.70;99.90;;;;;;5092538;28;20047;-75
2022/05/08 08:26:13;;;;;;;13.15;2.58;;;10.70;99.90;;;;;;5098308;28;20051;-82
2022/05/08 08:28:38;;;;;;;12.10;2.03;;;10.80;99.90;;;;;;5093047;28;20330;-77
2022/05/08 08:31:09;;;;;;;15.75;2.47;;;10.70;99.90;;;;;;5091183;28;20036;-78
2022/05/08 08:33:44;;;;;;;10.55;1.98;;;10.70;99.90;;;;;;5102645;28;20089;-79
2022/05/08 08:36:11;;;;;;;11.98;2.28;;;10.90;99.90;;;;;;5079360;28;20053;-77
2022/05/08 08:38:40;;;;;;;12.57;2.42;;;11.00;99.90;;;;;;5072914;28;20039;-83
2022/05/08 08:41:08;;;;;;;15.00;2.75;;;11.00;99.90;;;;;;5093928;28;20040;-82
2022/05/08 08:47:42;;;;;;;11.30;2.30;;;11.00;99.90;;;;;;5088620;28;20128;-77
2022/05/08 08:49:13;;;;;;;12.45;1.85;;;11.30;99.90;;;;;;5090745;28;20124;-81
2022/05/08 08:51:41;;;;;;;10.70;1.90;;;11.30;99.90;;;;;;5076516;28;20097;-77
2022/05/08 08:54:08;;;;;;;13.07;2.45;;;11.20;99.90;;;;;;5095977;28;20157;-76
2022/05/08 08:56:33;;;;;;;9.18;2.20;;;11.40;99.90;;;;;;5092840;28;20075;-79
2022/05/08 08:58:59;;;;;;;9.35;2.00;;;11.60;99.90;;;;;;5085214;28;20089;-80
2022/05/08 09:01:25;;;;;;;11.90;2.38;;;11.50;99.90;;;;;;5096950;28;20046;-75
2022/05/08 09:03:55;;;;;;;20.77;2.67;;;11.70;99.90;;;;;;5092850;28;20054;-79
2022/05/08 09:06:21;;;;;;;12.45;2.33;;;12.00;99.90;;;;;;5073784;28;20521;-76
2022/05/08 09:08:47;;;;;;;12.82;2.08;;;11.90;99.90;;;;;;5087287;28;20138;-77
2022/05/08 09:11:30;;;;;;;15.30;2.53;;;12.20;99.90;;;;;;5104367;28;20048;-79
2022/05/08 09:13:56;;;;;;;14.80;2.40;;;12.30;99.90;;;;;;5108452;28;20083;-78
2022/05/08 09:16:21;;;;;;;14.82;2.70;;;12.50;99.90;;;;;;5075301;28;20087;-76
2022/05/08 09:18:48;;;;;;;10.13;2.00;;;12.30;99.90;;;;;;5079792;28;20391;-78
2022/05/08 09:24:13;;;;;;;10.85;2.60;;;12.10;99.90;;;;;;5109576;28;20139;-74
2022/05/08 09:26:39;;;;;;;18.90;2.60;;;12.10;99.90;;;;;;5089028;28;20135;-72
2022/05/08 09:29:06;;;;;;;17.88;2.72;;;12.20;99.90;;;;;;5080719;28;20105;-77
2022/05/08 09:31:40;;;;;;;16.48;2.70;;;12.40;99.90;;;;;;5080466;28;20051;-77
2022/05/08 09:34:06;;;;;;;10.43;2.28;;;12.40;99.90;;;;;;5074304;28;20482;-79
2022/05/08 09:36:31;;;;;;;11.40;2.25;;;12.20;99.90;;;;;;5097133;28;20048;-80
2022/05/08 09:38:59;;;;;;;19.55;2.63;;;12.30;99.90;;;;;;5092924;28;20051;-81
2022/05/08 09:41:27;;;;;;;14.65;2.50;;;12.50;99.90;;;;;;5073462;28;20052;-82
2022/05/08 09:43:54;;;;;;;15.23;2.83;;;12.40;99.90;;;;;;5081338;28;20091;-81
2022/05/08 09:46:21;;;;;;;12.48;2.30;;;12.50;99.90;;;;;;5077155;28;20036;-81
2022/05/08 09:48:47;;;;;;;11.60;2.42;;;12.60;99.90;;;;;;5081153;28;20570;-82
2022/05/08 09:51:15;;;;;;;14.60;2.60;;;12.60;99.90;;;;;;5072168;28;20139;-79
2022/05/08 09:53:44;;;;;;;10.75;2.20;;;12.80;99.90;;;;;;5075276;28;20040;-81
2022/05/08 09:56:11;;;;;;;13.07;2.45;;;12.90;99.90;;;;;;5079378;28;20510;-81
2022/05/08 09:58:41;;;;;;;14.93;2.53;;;12.90;99.90;;;;;;5090471;28;20048;-79
2022/05/08 10:01:07;;;;;;;16.23;2.67;;;12.60;99.90;;;;;;5087570;28;20085;-79
2022/05/08 10:03:33;;;;;;;15.98;2.78;;;12.90;99.90;;;;;;5093596;28;20383;-82
2022/05/08 10:06:00;;;;;;;16.33;2.50;;;12.60;99.90;;;;;;5091993;28;20056;-80
2022/05/08 10:08:29;;;;;;;13.23;2.50;;;13.00;99.90;;;;;;5074102;28;20089;-78
2022/05/08 10:14:05;;;;;;;12.20;2.63;;;13.10;99.90;;;;;;5103684;28;20047;-81
2022/05/08 10:16:51;;;;;;;9.55;2.17;;;13.00;99.90;;;;;;5102636;28;20039;-79
2022/05/08 10:19:19;;;;;;;10.82;2.67;;;13.00;99.90;;;;;;5090218;28;20055;-80
2022/05/08 10:22:09;;;;;;;10.80;2.30;;;13.30;99.90;;;;;;5092038;28;20498;-80
2022/05/08 10:24:53;;;;;;;9.35;1.83;;;13.30;99.90;;;;;;5072100;28;20051;-81
2022/05/08 10:27:33;;;;;;;11.50;2.42;;;13.80;99.90;;;;;;5068046;28;20061;-81
2022/05/08 10:29:59;;;;;;;15.50;2.75;;;13.60;99.90;;;;;;5082877;28;20048;-80
2022/05/08 10:32:33;;;;;;;19.70;3.90;;;13.80;99.90;;;;;;5105236;28;20048;-81
2022/05/08 10:35:15;;;;;;;12.68;1.98;;;13.40;99.90;;;;;;5073476;28;20051;-82
2022/05/08 10:37:41;;;;;;;19.02;2.78;;;13.40;99.90;;;;;;5088881;28;20047;-80
2022/05/08 10:40:22;;;;;;;10.73;2.20;;;13.50;99.90;;;;;;5090707;28;20047;-82
2022/05/08 10:42:55;;;;;;;12.77;2.33;;;13.40;99.90;;;;;;5098867;28;20039;-79
2022/05/08 10:45:30;;;;;;;14.82;3.00;;;13.40;99.90;;;;;;5110033;28;20048;-82
2022/05/08 10:51:18;;;;;;;11.57;1.90;;;13.70;99.90;;;;;;5106695;28;20001;-81
2022/05/08 10:53:44;;;;;;;11.73;2.70;;;14.00;99.90;;;;;;5094814;28;20048;-82
2022/05/08 10:56:10;;;;;;;11.57;2.63;;;14.00;99.90;;;;;;5099359;28;20051;-82
2022/05/08 10:58:41;;;;;;;14.05;2.63;;;14.30;99.90;;;;;;5072314;28;20151;-81
2022/05/08 11:01:11;;;;;;;13.25;2.60;;;14.10;99.90;;;;;;5089098;28;20067;-82
2022/05/08 11:03:37;;;;;;;15.13;2.90;;;14.50;99.90;;;;;;5088376;28;20101;-82
2022/05/08 11:06:05;;;;;;;15.15;2.33;;;14.30;99.90;;;;;;5089502;28;20417;-80
2022/05/08 11:08:33;;;;;;;17.77;2.65;;;14.20;99.90;;;;;;5088043;28;20063;-80
2022/05/08 11:11:04;;;;;;;13.68;2.42;;;14.10;99.90;;;;;;5088699;28;20099;-82
2022/05/08 11:13:39;;;;;;;13.05;2.25;;;14.30;99.90;;;;;;5082647;28;20480;-80
2022/05/08 11:16:04;;;;;;;16.35;2.25;;;14.20;99.90;;;;;;5089068;28;20455;-82
2022/05/08 11:18:30;;;;;;;12.48;2.40;;;14.50;99.90;;;;;;5092571;28;20043;-82
2022/05/08 11:21:04;;;;;;;16.48;3.00;;;14.40;99.90;;;;;;5099816;28;20411;-82
2022/05/08 11:23:35;;;;;;;12.70;2.47;;;14.80;99.90;;;;;;5100545;28;20063;-81
2022/05/08 11:26:06;;;;;;;12.25;2.63;;;14.90;99.90;;;;;;5096689;28;20056;-82
2022/05/08 11:28:33;;;;;;;12.55;2.25;;;15.20;99.90;;;;;;5077276;28;20134;-82
2022/05/08 11:30:59;;;;;;;13.60;2.35;;;15.30;99.90;;;;;;5096863;28;20070;-81
2022/05/08 11:36:25;;;;;;;16.98;3.03;;;16.10;99.90;;;;;;5093629;28;20070;-83
2022/05/08 11:38:56;;;;;;;9.25;2.10;;;15.80;99.90;;;;;;5092166;28;20040;-81
2022/05/08 11:41:39;;;;;;;6.88;1.75;;;15.70;99.90;;;;;;5094612;28;20070;-84
2022/05/08 11:44:14;;;;;;;9.48;1.80;;;15.50;98.70;;;;;;5097678;28;20036;-84
2022/05/08 11:46:44;;;;;;;;;;;15.20;99.10;;;;;;5088288;28;20055;-85
2022/05/08 11:49:20;;;;;;;15.50;2.30;;;15.50;99.90;;;;;;5097241;28;19946;-81
2022/05/08 11:52:08;;;;;;;12.02;2.45;;;15.90;99.90;;;;;;5073100;28;20052;-84
2022/05/08 11:54:35;;;;;;;10.82;2.25;;;15.90;99.90;;;;;;5076807;28;20044;-80
2022/05/08 11:57:24;;;;;;;10.98;2.50;;;15.70;99.90;;;;;;5092053;28;20486;-81
2022/05/08 12:00:00;;;;;;;11.15;2.05;;;15.60;99.90;;;;;;5091192;28;20038;-77
2022/05/08 12:02:46;;;;;;;12.32;2.60;;;16.10;99.30;;;;;;5073682;28;20048;-78
2022/05/08 12:05:23;;;;;;;13.65;2.40;;;16.00;98.60;;;;;;5091220;28;20054;-81
2022/05/08 12:07:48;;;;;;;11.38;2.28;;;16.10;98.80;;;;;;5078186;28;20058;-81
2022/05/08 12:10:16;;;;;;;12.45;2.20;;;16.10;99.90;;;;;;5076777;28;20139;-81
2022/05/08 12:12:42;;;;;;;12.10;2.10;;;15.90;99.90;;;;;;5098004;28;20066;-76
2022/05/08 12:15:09;;;;;;;9.73;2.50;;;15.90;99.90;;;;;;5114519;28;20052;-76
2022/05/08 12:17:41;;;;;;;9.93;2.50;;;16.20;99.70;;;;;;5104175;28;20127;-81
2022/05/08 12:20:18;;;;;;;10.48;2.20;;;16.30;99.10;;;;;;5084871;28;20040;-78
2022/05/08 12:22:56;;;;;;;9.85;2.55;;;16.60;98.60;;;;;;5078928;28;20079;-80
2022/05/08 12:25:22;;;;;;;9.18;2.20;;;16.70;97.50;;;;;;5095445;28;20044;-79
2022/05/08 12:27:47;;;;;;;11.77;2.65;;;16.20;97.40;;;;;;5105175;28;20044;-79
2022/05/08 12:30:14;;;;;;;15.15;2.50;;;15.90;99.50;;;;;;5074521;28;20048;-80
2022/05/08 12:32:41;;;;;;;11.23;2.25;;;16.20;99.90;;;;;;5112220;27;20428;-80
2022/05/08 12:35:13;;;;;;;9.88;1.95;;;16.30;99.30;;;;;;5078857;28;20093;-83
2022/05/08 12:37:39;;;;;;;14.85;2.30;;;16.40;98.70;;;;;;5097972;28;20036;-84
2022/05/08 12:40:09;;;;;;;10.23;2.40;;;16.00;98.60;;;;;;5103078;27;20487;-80
2022/05/08 12:42:35;;;;;;;9.25;2.25;;;16.50;99.10;;;;;;5079287;28;20137;-78
2022/05/08 12:45:01;;;;;;;14.38;2.65;;;16.40;98.40;;;;;;5083465;28;20081;-80
2022/05/08 12:47:26;;;;;;;9.57;2.20;;;16.10;98.30;;;;;;5092325;28;20043;-79
2022/05/08 12:49:53;;;;;;;9.05;2.17;;;16.10;99.50;;;;;;5091488;28;20039;-81
2022/05/08 12:52:20;;;;;;;14.32;2.35;;;16.50;98.70;;;;;;5065479;28;20040;-82
2022/05/08 12:54:46;;;;;;;13.00;2.40;;;16.30;98.10;;;;;;5076408;28;20074;-81
2022/05/08 12:59:42;;;;;;;14.82;2.22;;;16.70;99.30;;;;;;5076500;28;20038;-80
2022/05/08 12:59:59;;;;;;;7.75;2.22;;;17.10;97.40;;;;;;5083884;28;20467;-81
2022/05/08 13:02:26;;;;;;;10.50;2.50;;;16.70;97.40;;;;;;5091822;28;20063;-80
2022/05/08 13:04:52;;;;;;;10.52;2.38;;;17.30;96.90;;;;;;5078724;28;20047;-80
2022/05/08 13:07:18;;;;;;;11.93;2.30;;;17.40;96.30;;;;;;5101202;28;20056;-80
2022/05/08 13:09:44;;;;;;;15.63;2.17;;;17.70;96.10;;;;;;5075624;28;20127;-80
2022/05/08 13:12:10;;;;;;;12.55;2.58;;;17.60;95.00;;;;;;5078517;28;20097;-80
2022/05/08 13:14:36;;;;;;;10.50;2.67;;;17.80;95.10;;;;;;5094660;28;20039;-80
2022/05/08 13:17:03;;;;;;;8.68;2.00;;;17.70;95.60;;;;;;5096149;28;20162;-80
2022/05/08 13:19:33;;;;;;;7.80;2.25;;;17.90;93.50;;;;;;5090324;28;20044;-85
2022/05/08 13:22:03;;;;;;;8.95;2.40;;;17.50;94.80;;;;;;5089266;28;20122;-77